createdAt,value
2024-01-20T00:01:54.472Z,17.20
2024-01-20T00:04:23.115Z,16.17
2024-01-20T00:06:53.213Z,18.27
2024-01-20T00:09:23.163Z,16.70
2024-01-20T00:11:54.841Z,16.70
2024-01-20T00:14:23.304Z,16.33
2024-01-20T00:16:51.673Z,16.90
2024-01-20T00:19:19.949Z,18.87
2024-01-20T00:21:48.321Z,15.97
2024-01-20T00:24:18.486Z,17.93
2024-01-20T00:26:46.714Z,17.43
2024-01-20T00:29:15.652Z,17.70
2024-01-20T00:31:44.139Z,19.37
2024-01-20T00:34:12.486Z,18.87
2024-01-20T00:36:40.880Z,17.90
2024-01-20T00:39:09.155Z,20.50
2024-01-20T00:41:38.817Z,18.00
2024-01-20T00:44:07.197Z,20.20
2024-01-20T00:46:36.148Z,20.80
2024-01-20T00:49:04.476Z,19.80
2024-01-20T00:51:32.778Z,20.60
2024-01-20T00:54:00.994Z,19.63
2024-01-20T00:56:29.469Z,21.37
2024-01-20T00:58:59.188Z,22.73
2024-01-20T01:01:27.463Z,22.00
2024-01-20T01:03:55.672Z,23.00
2024-01-20T01:06:23.853Z,21.20
2024-01-20T01:08:52.037Z,22.97
2024-01-20T01:11:20.582Z,22.57
2024-01-20T01:13:48.982Z,23.57
2024-01-20T01:16:18.690Z,21.70
2024-01-20T01:18:47.266Z,21.83
2024-01-20T01:21:15.491Z,24.17
2024-01-20T01:23:43.716Z,23.17
2024-01-20T01:26:12.171Z,23.30
2024-01-20T01:28:40.432Z,23.67
2024-01-20T01:31:08.740Z,23.40
2024-01-20T01:33:38.443Z,24.37
2024-01-20T01:36:07.836Z,24.57
2024-01-20T01:38:36.032Z,25.70
2024-01-20T01:41:04.329Z,24.10
2024-01-20T01:43:32.584Z,26.20
2024-01-20T01:46:00.841Z,26.40
2024-01-20T01:48:29.642Z,25.20
2024-01-20T01:51:00.479Z,23.33
2024-01-20T01:53:28.715Z,25.10
2024-01-20T01:55:57.346Z,26.33
2024-01-20T01:58:27.903Z,23.73
2024-01-20T02:00:56.396Z,26.83
2024-01-20T02:03:25.302Z,27.07
2024-01-20T02:05:53.983Z,25.03
2024-01-20T02:08:24.754Z,27.03
2024-01-20T02:10:53.272Z,27.17
2024-01-20T02:13:22.417Z,27.20
2024-01-20T02:15:50.991Z,26.80
2024-01-20T02:18:19.475Z,27.03
2024-01-20T02:20:47.908Z,26.47
2024-01-20T02:23:17.504Z,26.13
2024-01-20T02:25:45.699Z,26.77
2024-01-20T02:28:14.056Z,26.83
2024-01-20T02:30:42.764Z,26.70
2024-01-20T02:33:11.541Z,26.00
2024-01-20T02:35:39.766Z,27.70
2024-01-20T02:38:07.961Z,28.73
2024-01-20T02:40:37.618Z,27.33
2024-01-20T02:43:05.892Z,27.03
2024-01-20T02:45:34.173Z,28.00
2024-01-20T02:48:02.802Z,28.40
2024-01-20T02:50:32.045Z,27.37
2024-01-20T02:53:00.311Z,26.47
2024-01-20T02:55:28.491Z,27.67
2024-01-20T02:57:58.053Z,28.07
2024-01-20T03:00:26.647Z,28.20
2024-01-20T03:02:54.972Z,26.30
2024-01-20T03:05:23.324Z,28.00
2024-01-20T03:07:51.558Z,27.00
2024-01-20T03:10:19.923Z,27.50
2024-01-20T03:12:48.269Z,26.50
2024-01-20T03:15:18.090Z,26.40
2024-01-20T03:17:46.313Z,27.53
2024-01-20T03:20:14.602Z,27.33
2024-01-20T03:22:42.786Z,26.50
2024-01-20T03:25:11.358Z,26.33
2024-01-20T03:27:39.671Z,26.33
2024-01-20T03:30:09.294Z,26.90
2024-01-20T03:32:38.905Z,27.67
2024-01-20T03:35:07.743Z,26.50
2024-01-20T03:37:35.963Z,29.27
2024-01-20T03:40:04.402Z,28.50
2024-01-20T03:42:32.711Z,28.50
2024-01-20T03:45:01.026Z,27.50
2024-01-20T03:47:31.060Z,28.23
2024-01-20T03:50:01.316Z,27.73
2024-01-20T03:52:29.573Z,28.70
2024-01-20T03:54:57.924Z,28.30
2024-01-20T03:57:26.147Z,28.90
2024-01-20T03:59:54.402Z,28.80
2024-01-20T04:02:22.612Z,29.03
2024-01-20T04:04:52.158Z,29.10
2024-01-20T04:07:21.788Z,31.30
2024-01-20T04:09:50.023Z,29.53
2024-01-20T04:12:18.912Z,28.73
2024-01-20T04:14:47.749Z,30.10
2024-01-20T04:17:16.042Z,29.90
2024-01-20T04:19:44.209Z,29.33
2024-01-20T04:22:12.411Z,30.23
2024-01-20T04:24:41.956Z,30.10
2024-01-20T04:27:10.168Z,30.43
2024-01-20T04:29:38.470Z,31.00
2024-01-20T04:32:07.506Z,29.50
2024-01-20T04:34:35.759Z,31.10
2024-01-20T04:37:03.971Z,29.80
2024-01-20T04:39:32.193Z,31.43
2024-01-20T04:42:01.871Z,30.30
2024-01-20T04:44:30.327Z,31.70
2024-01-20T04:46:58.686Z,30.60
2024-01-20T04:49:27.038Z,31.00
2024-01-20T04:51:55.366Z,32.80
2024-01-20T04:54:23.573Z,30.80
2024-01-20T04:56:51.922Z,32.63
2024-01-20T04:59:21.596Z,31.90
2024-01-20T05:01:50.131Z,31.00
2024-01-20T05:04:18.391Z,32.70
2024-01-20T05:06:46.963Z,32.13
2024-01-20T05:09:15.686Z,32.50
2024-01-20T05:11:44.198Z,32.73
2024-01-20T05:14:12.579Z,31.50
2024-01-20T05:16:42.225Z,30.37
2024-01-20T05:19:10.820Z,29.83
2024-01-20T05:21:39.586Z,31.63
2024-01-20T05:24:08.166Z,32.57
2024-01-20T05:26:36.451Z,30.83
2024-01-20T05:29:04.658Z,31.93
2024-01-20T05:31:33.646Z,33.33
2024-01-20T05:34:03.600Z,30.33
2024-01-20T05:36:32.149Z,30.50
2024-01-20T05:39:00.538Z,30.83
2024-01-20T05:41:28.787Z,29.50
2024-01-20T05:43:57.007Z,32.90
2024-01-20T05:46:25.194Z,30.63
2024-01-20T05:48:53.616Z,28.90
2024-01-20T05:51:23.393Z,30.57
2024-01-20T05:53:52.311Z,29.90
2024-01-20T05:56:21.601Z,27.17
2024-01-20T05:58:49.887Z,28.60
2024-01-20T06:01:18.514Z,28.57
2024-01-20T06:03:47.065Z,29.03
2024-01-20T06:06:15.368Z,27.27
2024-01-20T06:08:45.058Z,27.70
2024-01-20T06:11:13.577Z,27.80
2024-01-20T06:13:41.835Z,28.30
2024-01-20T06:16:13.597Z,29.03
2024-01-20T06:18:42.009Z,25.33
2024-01-20T06:21:10.790Z,26.40
2024-01-20T06:23:39.558Z,28.80
2024-01-20T06:26:09.467Z,28.63
2024-01-20T06:28:37.857Z,28.67
2024-01-20T06:31:06.350Z,28.30
2024-01-20T06:33:35.010Z,26.80
2024-01-20T06:36:03.621Z,27.63
2024-01-20T06:38:32.295Z,26.40
2024-01-20T06:41:01.120Z,28.33
2024-01-20T06:43:31.006Z,30.67
2024-01-20T06:45:59.274Z,27.80
2024-01-20T06:48:27.743Z,26.20
2024-01-20T06:50:56.746Z,27.80
2024-01-20T06:53:25.182Z,27.57
2024-01-20T06:55:53.471Z,28.83
2024-01-20T06:58:21.923Z,30.57
2024-01-20T07:00:51.890Z,28.43
2024-01-20T07:03:20.373Z,27.73
2024-01-20T07:05:48.733Z,30.07
2024-01-20T07:08:19.990Z,28.73
2024-01-20T07:10:48.591Z,30.37
2024-01-20T07:13:16.999Z,28.50
2024-01-20T07:15:45.348Z,26.57
2024-01-20T07:18:15.038Z,26.07
2024-01-20T07:20:44.104Z,26.90
2024-01-20T07:23:14.747Z,27.57
2024-01-20T07:25:42.947Z,27.43
2024-01-20T07:28:11.634Z,26.33
2024-01-20T07:30:42.765Z,27.47
2024-01-20T07:33:11.169Z,24.00
2024-01-20T07:35:44.980Z,23.83
2024-01-20T07:38:13.958Z,24.57
2024-01-20T07:40:42.248Z,25.53
2024-01-20T07:43:10.675Z,27.13
2024-01-20T07:45:40.557Z,26.27
2024-01-20T07:48:09.270Z,26.23
2024-01-20T07:50:37.530Z,25.13
2024-01-20T07:53:07.337Z,26.90
2024-01-20T07:55:35.613Z,24.77
2024-01-20T07:58:03.902Z,23.80
2024-01-20T08:00:32.121Z,24.03
2024-01-20T08:03:00.334Z,25.10
2024-01-20T08:05:29.574Z,26.53
2024-01-20T08:07:58.670Z,27.10
2024-01-20T08:10:28.340Z,22.93
2024-01-20T08:12:57.350Z,24.27
2024-01-20T08:15:25.624Z,22.57
2024-01-20T08:17:53.913Z,22.07
2024-01-20T08:20:22.238Z,22.40
2024-01-20T08:22:50.441Z,23.53
2024-01-20T08:25:18.602Z,20.83
2024-01-20T08:27:48.128Z,21.47
2024-01-20T08:30:17.040Z,20.77
2024-01-20T08:32:45.490Z,22.37
2024-01-20T08:35:13.772Z,21.90
2024-01-20T08:37:42.052Z,23.70
2024-01-20T08:40:10.807Z,22.20
2024-01-20T08:42:39.010Z,20.63
2024-01-20T08:45:09.965Z,21.30
2024-01-20T08:47:38.281Z,22.00
2024-01-20T08:50:07.016Z,21.77
2024-01-20T08:52:35.481Z,20.67
2024-01-20T08:55:03.931Z,19.30
2024-01-20T08:57:33.602Z,19.57
2024-01-20T09:00:02.200Z,20.87
2024-01-20T09:02:31.892Z,21.30
2024-01-20T09:05:00.136Z,20.03
2024-01-20T09:07:28.393Z,20.00
2024-01-20T09:09:59.070Z,21.33
2024-01-20T09:12:27.931Z,21.03
2024-01-20T09:14:56.621Z,20.60
2024-01-20T09:17:25.091Z,20.20
2024-01-20T09:19:55.062Z,20.73
2024-01-20T09:22:23.295Z,21.37
2024-01-20T09:24:51.725Z,20.73
2024-01-20T09:27:20.220Z,21.50
2024-01-20T09:29:48.423Z,20.93
2024-01-20T09:32:16.652Z,23.30
2024-01-20T09:34:44.952Z,22.30
2024-01-20T09:37:14.732Z,21.53
2024-01-20T09:39:42.972Z,20.17
2024-01-20T09:42:11.517Z,20.60
2024-01-20T09:44:39.969Z,20.93
2024-01-20T09:47:11.099Z,22.33
2024-01-20T09:49:39.582Z,21.30
2024-01-20T09:52:11.277Z,22.17
2024-01-20T09:54:48.204Z,21.90
2024-01-20T09:57:17.641Z,21.57
2024-01-20T09:59:46.837Z,22.20
2024-01-20T10:02:16.170Z,20.03
2024-01-20T10:04:46.768Z,20.87
2024-01-20T10:07:28.373Z,21.17
2024-01-20T10:09:58.214Z,20.80
2024-01-20T10:12:26.523Z,21.23
2024-01-20T10:14:55.045Z,21.90
2024-01-20T10:17:23.411Z,20.70
2024-01-20T10:19:51.834Z,20.57
2024-01-20T10:22:20.828Z,22.87
2024-01-20T10:24:49.134Z,20.43
2024-01-20T10:27:24.381Z,22.37
2024-01-20T10:29:52.759Z,21.33
2024-01-20T10:32:21.022Z,19.50
2024-01-20T10:34:49.552Z,21.40
2024-01-20T10:37:20.792Z,20.07
2024-01-20T10:39:49.067Z,20.50
2024-01-20T10:42:17.884Z,22.20
2024-01-20T10:44:58.483Z,20.83
2024-01-20T10:47:38.764Z,19.97
2024-01-20T10:50:08.974Z,21.00
2024-01-20T10:52:37.925Z,19.53
2024-01-20T10:55:07.522Z,20.17
2024-01-20T10:57:36.014Z,20.80
2024-01-20T11:00:10.163Z,21.90
2024-01-20T11:02:39.235Z,20.33
2024-01-20T11:05:19.959Z,21.43
2024-01-20T11:08:00.462Z,19.97
2024-01-20T11:10:28.760Z,20.10
2024-01-20T11:13:06.651Z,20.20
2024-01-20T11:15:37.319Z,20.70
2024-01-20T11:18:18.706Z,21.33
2024-01-20T11:20:58.569Z,20.57
2024-01-20T11:23:27.158Z,20.10
2024-01-20T11:25:55.829Z,20.10
2024-01-20T11:28:28.153Z,19.47
2024-01-20T11:30:57.802Z,19.70
2024-01-20T11:33:26.721Z,20.30
2024-01-20T11:35:55.123Z,19.70
2024-01-20T11:38:23.482Z,19.33
2024-01-20T11:41:02.975Z,19.20
2024-01-20T11:43:31.683Z,19.83
2024-01-20T11:46:03.684Z,20.33
2024-01-20T11:48:32.865Z,21.60
2024-01-20T11:51:02.748Z,20.77
2024-01-20T11:53:31.092Z,19.27
2024-01-20T11:56:01.331Z,20.70
2024-01-20T11:58:31.363Z,20.87
2024-01-20T12:01:02.644Z,20.50
2024-01-20T12:03:31.119Z,19.47
2024-01-20T12:06:06.730Z,18.80
2024-01-20T12:08:38.006Z,19.60
2024-01-20T12:11:06.518Z,19.10
2024-01-20T12:13:36.900Z,20.50
2024-01-20T12:16:07.284Z,19.57
2024-01-20T12:18:35.722Z,19.70
2024-01-20T12:21:04.073Z,22.00
2024-01-20T12:23:32.274Z,19.93
2024-01-20T12:26:00.823Z,20.60
2024-01-20T12:28:29.045Z,19.10
2024-01-20T12:30:57.933Z,20.33
2024-01-20T12:33:27.586Z,18.80
2024-01-20T12:35:55.920Z,19.73
2024-01-20T12:38:24.269Z,20.30
2024-01-20T12:40:52.648Z,20.70
2024-01-20T12:43:21.071Z,20.37
2024-01-20T12:45:49.675Z,20.57
2024-01-20T12:48:18.129Z,19.53
2024-01-20T12:50:47.775Z,19.77
2024-01-20T12:53:16.147Z,19.43
2024-01-20T12:55:45.654Z,20.93
2024-01-20T12:58:13.872Z,19.93
2024-01-20T13:00:42.159Z,21.83
2024-01-20T13:03:10.345Z,20.00
2024-01-20T13:05:38.724Z,19.00
2024-01-20T13:08:08.859Z,19.20
2024-01-20T13:10:37.122Z,19.57
2024-01-20T13:13:05.938Z,19.57
2024-01-20T13:15:34.210Z,19.20
2024-01-20T13:18:02.596Z,20.07
2024-01-20T13:20:30.765Z,18.60
2024-01-20T13:22:59.059Z,19.33
2024-01-20T13:25:29.970Z,17.17
2024-01-20T13:27:58.349Z,18.10
2024-01-20T13:30:26.621Z,17.90
2024-01-20T13:32:55.223Z,17.20
2024-01-20T13:35:23.411Z,18.87
2024-01-20T13:37:52.016Z,19.77
2024-01-20T13:40:20.282Z,17.53
2024-01-20T13:42:50.069Z,16.80
2024-01-20T13:45:18.525Z,18.67
2024-01-20T13:47:46.860Z,17.40
2024-01-20T13:50:15.231Z,17.83
2024-01-20T13:52:43.520Z,17.70
2024-01-20T13:55:11.714Z,17.27
2024-01-20T13:57:40.688Z,18.73
2024-01-20T14:00:13.268Z,17.27
2024-01-20T14:02:43.469Z,17.73
2024-01-20T14:05:11.885Z,18.70
2024-01-20T14:07:40.066Z,17.83
2024-01-20T14:10:09.526Z,17.60
2024-01-20T14:12:38.090Z,19.47
2024-01-20T14:15:07.554Z,18.58
2024-01-20T14:17:37.475Z,18.40
2024-01-20T14:20:07.950Z,18.80
2024-01-20T14:22:36.140Z,18.47
2024-01-20T14:25:06.476Z,18.77
2024-01-20T14:27:35.520Z,16.90
2024-01-20T14:30:04.555Z,19.10
2024-01-20T14:32:32.911Z,19.23
2024-01-20T14:35:02.704Z,19.13
2024-01-20T14:37:31.040Z,18.57
2024-01-20T14:39:59.235Z,18.53
2024-01-20T14:42:27.601Z,20.97
2024-01-20T14:44:55.889Z,20.07
2024-01-20T14:47:24.894Z,18.80
2024-01-20T14:49:53.272Z,17.90
2024-01-20T14:52:22.892Z,18.20
2024-01-20T14:54:51.139Z,20.20
2024-01-20T14:57:19.484Z,18.07
2024-01-20T14:59:47.808Z,19.17
2024-01-20T15:02:16.054Z,18.33
2024-01-20T15:04:44.362Z,18.40
2024-01-20T15:07:12.710Z,18.60
2024-01-20T15:09:42.520Z,18.27
2024-01-20T15:12:11.273Z,19.27
2024-01-20T15:14:41.387Z,18.73
2024-01-20T15:17:09.661Z,17.87
2024-01-20T15:19:39.433Z,17.20
2024-01-20T15:22:07.949Z,18.20
2024-01-20T15:24:36.482Z,18.30
2024-01-20T15:27:06.684Z,18.00
2024-01-20T15:29:35.258Z,16.80
2024-01-20T15:32:05.496Z,17.93
2024-01-20T15:34:34.127Z,18.20
2024-01-20T15:37:02.433Z,18.80
2024-01-20T15:39:30.903Z,18.17
2024-01-20T15:41:59.561Z,18.30
2024-01-20T15:44:29.335Z,19.33
2024-01-20T15:46:57.556Z,19.27
2024-01-20T15:49:25.895Z,20.17
2024-01-20T15:51:54.240Z,21.60
2024-01-20T15:54:22.454Z,20.50
2024-01-20T15:56:50.712Z,20.30
2024-01-20T15:59:24.384Z,21.47
2024-01-20T16:01:54.319Z,19.57
2024-01-20T16:04:22.716Z,20.87
2024-01-20T16:06:50.994Z,19.80
2024-01-20T16:09:20.297Z,19.67
2024-01-20T16:11:51.772Z,21.60
2024-01-20T16:14:24.035Z,19.73
2024-01-20T16:16:53.839Z,20.80
2024-01-20T16:19:22.227Z,22.43
2024-01-20T16:21:52.402Z,18.83
2024-01-20T16:24:21.268Z,20.83
2024-01-20T16:26:50.056Z,20.50
2024-01-20T16:29:20.553Z,20.30
2024-01-20T16:31:48.906Z,19.67
2024-01-20T16:34:19.239Z,19.00
2024-01-20T16:36:49.434Z,19.10
2024-01-20T16:39:17.719Z,20.40
2024-01-20T16:41:46.710Z,22.00
2024-01-20T16:44:14.894Z,22.33
2024-01-20T16:46:52.203Z,20.37
2024-01-20T16:49:22.185Z,20.70
2024-01-20T16:51:50.601Z,19.47
2024-01-20T16:54:21.926Z,21.90
2024-01-20T16:56:51.093Z,20.10
2024-01-20T16:59:19.332Z,20.70
2024-01-20T17:01:47.532Z,17.90
2024-01-20T17:04:16.068Z,19.03
2024-01-20T17:06:45.770Z,21.47
2024-01-20T17:09:15.216Z,20.87
2024-01-20T17:11:46.115Z,20.27
2024-01-20T17:14:18.886Z,16.93
2024-01-20T17:16:48.731Z,18.90
2024-01-20T17:19:17.181Z,19.83
2024-01-20T17:21:47.833Z,20.23
2024-01-20T17:24:16.404Z,20.23
2024-01-20T17:26:44.605Z,19.60
2024-01-20T17:29:13.413Z,21.63
2024-01-20T17:31:41.638Z,20.37
2024-01-20T17:34:10.586Z,22.50
2024-01-20T17:36:39.234Z,20.37
2024-01-20T17:39:10.529Z,20.47
2024-01-20T17:41:41.241Z,18.90
2024-01-20T17:44:09.580Z,21.70
2024-01-20T17:46:37.878Z,19.70
2024-01-20T17:49:07.184Z,21.13
2024-01-20T17:51:35.531Z,18.40
2024-01-20T17:54:04.337Z,20.63
2024-01-20T17:56:33.910Z,19.90
2024-01-20T17:59:02.208Z,19.33
2024-01-20T18:01:31.498Z,19.20
2024-01-20T18:04:00.162Z,20.53
2024-01-20T18:06:28.639Z,21.47
2024-01-20T18:08:56.884Z,19.37
2024-01-20T18:11:26.004Z,20.73
2024-01-20T18:13:56.186Z,19.10
2024-01-20T18:16:24.661Z,19.13
2024-01-20T18:18:53.197Z,22.53
2024-01-20T18:21:22.619Z,20.53
2024-01-20T18:23:50.894Z,19.27
2024-01-20T18:26:19.088Z,20.97
2024-01-20T18:28:47.572Z,24.27
2024-01-20T18:31:17.149Z,21.30
2024-01-20T18:33:45.450Z,22.30
2024-01-20T18:36:13.713Z,21.00
2024-01-20T18:38:41.950Z,21.00
2024-01-20T18:41:10.315Z,21.90
2024-01-20T18:43:38.573Z,19.53
2024-01-20T18:46:07.024Z,19.47
2024-01-20T18:48:36.881Z,18.20
2024-01-20T18:51:05.471Z,18.13
2024-01-20T18:53:33.808Z,18.33
2024-01-20T18:56:02.004Z,19.93
2024-01-20T18:58:30.364Z,19.47
2024-01-20T19:00:58.919Z,19.17
2024-01-20T19:03:27.246Z,19.50
2024-01-20T19:05:56.909Z,19.50
2024-01-20T19:08:25.336Z,18.97
2024-01-20T19:10:53.660Z,17.10
2024-01-20T19:13:21.972Z,16.90
2024-01-20T19:15:50.479Z,17.17
2024-01-20T19:18:19.205Z,15.17
2024-01-20T19:20:50.954Z,15.97
2024-01-20T19:23:22.361Z,16.47
2024-01-20T19:25:53.474Z,23.30
2024-01-20T19:28:21.825Z,18.67
2024-01-20T19:30:52.420Z,15.37
2024-01-20T19:33:21.274Z,15.60
2024-01-20T19:35:50.429Z,15.63
2024-01-20T19:38:22.598Z,16.33
2024-01-20T19:40:53.260Z,14.83
2024-01-20T19:43:31.847Z,15.13
2024-01-20T19:46:04.818Z,14.80
2024-01-20T19:48:34.657Z,15.43
2024-01-20T19:51:09.685Z,13.83
2024-01-20T19:53:40.982Z,13.57
2024-01-20T19:56:09.903Z,13.53
2024-01-20T19:58:38.728Z,12.47
2024-01-20T20:01:07.699Z,11.57
2024-01-20T20:03:36.372Z,12.27
2024-01-20T20:06:08.639Z,11.53
2024-01-20T20:08:41.151Z,11.10
2024-01-20T20:11:09.792Z,10.80
2024-01-20T20:13:40.427Z,10.53
2024-01-20T20:16:11.766Z,11.03
2024-01-20T20:18:40.342Z,10.33
2024-01-20T20:21:15.537Z,10.63
2024-01-20T20:23:45.362Z,10.23
2024-01-20T20:26:13.737Z,10.40
2024-01-20T20:28:42.068Z,9.53
2024-01-20T20:31:11.058Z,11.30
2024-01-20T20:33:39.674Z,11.13
2024-01-20T20:36:08.599Z,9.63
2024-01-20T20:38:36.940Z,8.73
2024-01-20T20:41:06.866Z,9.33
2024-01-20T20:43:35.897Z,8.93
2024-01-20T20:46:04.665Z,10.97
2024-01-20T20:48:33.039Z,8.63
2024-01-20T20:51:01.466Z,8.50
2024-01-20T20:53:29.870Z,9.53
2024-01-20T20:55:59.307Z,10.07
2024-01-20T20:58:29.485Z,8.97
2024-01-20T21:00:58.938Z,9.57
2024-01-20T21:03:27.388Z,8.70
2024-01-20T21:05:55.713Z,8.50
2024-01-20T21:08:24.145Z,8.43
2024-01-20T21:10:53.794Z,7.90
2024-01-20T21:13:22.022Z,7.40
2024-01-20T21:15:51.896Z,8.47
2024-01-20T21:18:20.230Z,6.60
2024-01-20T21:20:49.459Z,6.50
2024-01-20T21:23:17.883Z,6.20
2024-01-20T21:25:46.263Z,7.80
2024-01-20T21:28:17.619Z,6.90
2024-01-20T21:30:46.222Z,5.90
2024-01-20T21:33:16.172Z,7.67
2024-01-20T21:35:44.740Z,7.00
2024-01-20T21:38:13.974Z,6.90
2024-01-20T21:40:44.704Z,7.10
2024-01-20T21:43:13.492Z,6.97
2024-01-20T21:45:43.842Z,6.97
2024-01-20T21:48:13.347Z,6.50
2024-01-20T21:50:43.570Z,6.50
2024-01-20T21:53:12.332Z,6.63
2024-01-20T21:55:40.737Z,5.90
2024-01-20T21:58:09.065Z,6.83
2024-01-20T22:00:38.390Z,6.77
2024-01-20T22:03:07.190Z,11.17
2024-01-20T22:05:35.594Z,8.07
2024-01-20T22:08:05.972Z,6.73
2024-01-20T22:10:34.506Z,7.47
2024-01-20T22:13:02.790Z,7.03
2024-01-20T22:15:31.463Z,6.80
2024-01-20T22:17:59.839Z,7.03
2024-01-20T22:20:28.166Z,6.47
2024-01-20T22:22:55.474Z,7.00
2024-01-20T22:25:25.166Z,6.10
2024-01-20T22:27:54.211Z,6.73
2024-01-20T22:30:22.821Z,6.43
2024-01-20T22:32:52.508Z,5.80
2024-01-20T22:35:20.949Z,6.67
2024-01-20T22:37:49.707Z,5.23
2024-01-20T22:40:18.300Z,5.97
2024-01-20T22:42:48.152Z,5.23
2024-01-20T22:45:17.550Z,5.60
2024-01-20T22:47:48.478Z,5.53
2024-01-20T22:50:16.981Z,5.03
2024-01-20T22:52:46.207Z,6.00
2024-01-20T22:55:15.062Z,6.00
2024-01-20T22:57:43.480Z,5.57
2024-01-20T23:00:15.311Z,5.23
2024-01-20T23:02:44.315Z,5.73
2024-01-20T23:05:13.994Z,6.10
2024-01-20T23:07:42.363Z,4.97
2024-01-20T23:10:11.591Z,5.30
2024-01-20T23:12:39.916Z,5.47
2024-01-20T23:15:09.428Z,5.67
2024-01-20T23:17:39.098Z,4.63
2024-01-20T23:20:10.905Z,5.40
2024-01-20T23:22:39.196Z,6.40
2024-01-20T23:25:08.054Z,5.10
2024-01-20T23:27:37.323Z,4.70
2024-01-20T23:30:06.562Z,5.47
2024-01-20T23:32:35.048Z,4.93
2024-01-20T23:35:05.461Z,4.70
2024-01-20T23:37:33.778Z,5.40
2024-01-20T23:40:02.908Z,5.53
2024-01-20T23:42:31.784Z,4.63
2024-01-20T23:45:00.604Z,4.77
2024-01-20T23:47:28.883Z,4.80
2024-01-20T23:49:58.748Z,4.50
2024-01-20T23:52:28.593Z,4.70
2024-01-20T23:54:56.803Z,4.27
2024-01-20T23:57:25.247Z,4.40
2024-01-20T23:59:53.491Z,4.10
